Worthington, West Virginia
Current Conditions -  °F | °C
As of 2:53 AM on Monday 24 Nov 2014 (Local Time) from KCKB Reporting Station
Overcast Overcast  
Wind Chill: 64°   Ceiling: 6500
Heat Index: 64°   Visibility: 10mi
Dew Point: 49°   Wind: 20mph
Humidity: 58%   Direction: 200°SSW
Pressure: 29.47"   Gusts: 32mph
Location:  39.45°N, 80.26°W
Report Text: KCKB 240753Z AUTO 20017G28KT 10SM FEW049 BKN065 OVC085 18/09 A2947 RMK AO2 PK WND 22028/0753 SLP966 T01780094 TSNO
Loading
Personal Weather Stations






























Interactive Weather Map New forecast layout! Learn more

10-Day Weather Forecast

Advertisements
Track Severe Weather on mobile